sensor_id;sensor_type;location;lat;lon;timestamp;P1;durP1;ratioP1;P2;durP2;ratioP2
48014;SDS011;33780;51.034;7.120;2023-02-12T00:00:36;17.65;;;6.50;;
48014;SDS011;33780;51.034;7.120;2023-02-12T00:03:02;15.30;;;7.03;;
48014;SDS011;33780;51.034;7.120;2023-02-12T00:05:28;17.35;;;6.18;;
48014;SDS011;33780;51.034;7.120;2023-02-12T00:07:53;16.13;;;6.78;;
48014;SDS011;33780;51.034;7.120;2023-02-12T00:10:18;17.00;;;6.55;;
48014;SDS011;33780;51.034;7.120;2023-02-12T00:12:44;15.43;;;6.32;;
48014;SDS011;33780;51.034;7.120;2023-02-12T00:15:09;16.80;;;6.13;;
48014;SDS011;33780;51.034;7.120;2023-02-12T00:17:34;16.27;;;6.75;;
48014;SDS011;33780;51.034;7.120;2023-02-12T00:19:59;16.95;;;6.18;;
48014;SDS011;33780;51.034;7.120;2023-02-12T00:22:25;18.10;;;6.70;;
48014;SDS011;33780;51.034;7.120;2023-02-12T00:24:50;14.82;;;6.18;;
48014;SDS011;33780;51.034;7.120;2023-02-12T00:27:15;15.13;;;6.45;;
48014;SDS011;33780;51.034;7.120;2023-02-12T00:29:40;18.85;;;6.28;;
48014;SDS011;33780;51.034;7.120;2023-02-12T00:32:06;17.60;;;6.10;;
48014;SDS011;33780;51.034;7.120;2023-02-12T00:34:31;20.98;;;7.38;;
48014;SDS011;33780;51.034;7.120;2023-02-12T00:36:56;14.70;;;6.15;;
48014;SDS011;33780;51.034;7.120;2023-02-12T00:39:22;16.58;;;6.47;;
48014;SDS011;33780;51.034;7.120;2023-02-12T00:41:47;19.42;;;7.55;;
48014;SDS011;33780;51.034;7.120;2023-02-12T00:44:12;18.13;;;6.55;;
48014;SDS011;33780;51.034;7.120;2023-02-12T00:46:37;16.52;;;6.70;;
48014;SDS011;33780;51.034;7.120;2023-02-12T00:49:03;20.95;;;7.10;;
48014;SDS011;33780;51.034;7.120;2023-02-12T00:51:28;14.88;;;6.25;;
48014;SDS011;33780;51.034;7.120;2023-02-12T00:53:53;17.92;;;6.88;;
48014;SDS011;33780;51.034;7.120;2023-02-12T00:56:19;19.55;;;6.80;;
48014;SDS011;33780;51.034;7.120;2023-02-12T00:58:44;16.77;;;6.63;;
48014;SDS011;33780;51.034;7.120;2023-02-12T01:01:10;15.40;;;5.72;;
48014;SDS011;33780;51.034;7.120;2023-02-12T01:03:35;16.02;;;6.22;;
48014;SDS011;33780;51.034;7.120;2023-02-12T01:06:01;13.90;;;5.97;;
48014;SDS011;33780;51.034;7.120;2023-02-12T01:08:26;15.80;;;6.15;;
48014;SDS011;33780;51.034;7.120;2023-02-12T01:10:55;14.70;;;6.13;;
48014;SDS011;33780;51.034;7.120;2023-02-12T01:13:22;15.52;;;5.57;;
48014;SDS011;33780;51.034;7.120;2023-02-12T01:15:49;16.35;;;6.30;;
48014;SDS011;33780;51.034;7.120;2023-02-12T01:18:14;15.77;;;5.53;;
48014;SDS011;33780;51.034;7.120;2023-02-12T01:20:40;14.15;;;5.80;;
48014;SDS011;33780;51.034;7.120;2023-02-12T01:23:05;15.75;;;6.05;;
48014;SDS011;33780;51.034;7.120;2023-02-12T01:25:32;13.32;;;5.40;;
48014;SDS011;33780;51.034;7.120;2023-02-12T01:27:57;16.85;;;6.68;;
48014;SDS011;33780;51.034;7.120;2023-02-12T01:30:23;16.40;;;6.82;;
48014;SDS011;33780;51.034;7.120;2023-02-12T01:32:48;14.55;;;5.47;;
48014;SDS011;33780;51.034;7.120;2023-02-12T01:35:14;14.70;;;5.60;;
48014;SDS011;33780;51.034;7.120;2023-02-12T01:37:39;23.88;;;6.95;;
48014;SDS011;33780;51.034;7.120;2023-02-12T01:40:05;20.58;;;7.35;;
48014;SDS011;33780;51.034;7.120;2023-02-12T01:42:32;14.68;;;5.65;;
48014;SDS011;33780;51.034;7.120;2023-02-12T01:47:39;12.60;;;5.25;;
48014;SDS011;33780;51.034;7.120;2023-02-12T01:50:05;17.27;;;6.72;;
48014;SDS011;33780;51.034;7.120;2023-02-12T01:52:34;15.65;;;6.47;;
48014;SDS011;33780;51.034;7.120;2023-02-12T01:55:03;13.13;;;5.65;;
48014;SDS011;33780;51.034;7.120;2023-02-12T01:57:31;16.17;;;5.97;;
48014;SDS011;33780;51.034;7.120;2023-02-12T01:59:59;18.88;;;5.57;;
48014;SDS011;33780;51.034;7.120;2023-02-12T02:02:27;14.95;;;6.72;;
48014;SDS011;33780;51.034;7.120;2023-02-12T02:04:55;13.30;;;5.60;;
48014;SDS011;33780;51.034;7.120;2023-02-12T02:07:26;14.48;;;5.63;;
48014;SDS011;33780;51.034;7.120;2023-02-12T02:09:51;14.68;;;5.82;;
48014;SDS011;33780;51.034;7.120;2023-02-12T02:12:16;13.27;;;5.45;;
48014;SDS011;33780;51.034;7.120;2023-02-12T02:15:01;13.82;;;5.43;;
48014;SDS011;33780;51.034;7.120;2023-02-12T02:17:40;12.45;;;5.22;;
48014;SDS011;33780;51.034;7.120;2023-02-12T02:26:18;14.30;;;5.80;;
48014;SDS011;33780;51.034;7.120;2023-02-12T02:32:07;20.27;;;6.57;;
48014;SDS011;33780;51.034;7.120;2023-02-12T02:34:39;14.25;;;6.18;;
48014;SDS011;33780;51.034;7.120;2023-02-12T02:39:54;13.82;;;5.50;;
48014;SDS011;33780;51.034;7.120;2023-02-12T02:42:26;15.13;;;5.78;;
48014;SDS011;33780;51.034;7.120;2023-02-12T02:45:03;14.48;;;5.72;;
48014;SDS011;33780;51.034;7.120;2023-02-12T02:47:50;14.27;;;5.85;;
48014;SDS011;33780;51.034;7.120;2023-02-12T02:50:20;16.63;;;6.20;;
48014;SDS011;33780;51.034;7.120;2023-02-12T02:55:26;15.23;;;5.75;;
48014;SDS011;33780;51.034;7.120;2023-02-12T02:57:57;20.00;;;6.88;;
48014;SDS011;33780;51.034;7.120;2023-02-12T03:00:30;15.68;;;6.70;;
48014;SDS011;33780;51.034;7.120;2023-02-12T03:03:10;15.18;;;5.95;;
48014;SDS011;33780;51.034;7.120;2023-02-12T03:05:48;17.15;;;6.18;;
48014;SDS011;33780;51.034;7.120;2023-02-12T03:08:21;16.50;;;5.75;;
48014;SDS011;33780;51.034;7.120;2023-02-12T03:10:55;15.95;;;5.38;;
48014;SDS011;33780;51.034;7.120;2023-02-12T03:13:26;16.30;;;6.30;;
48014;SDS011;33780;51.034;7.120;2023-02-12T03:18:30;15.45;;;5.70;;
48014;SDS011;33780;51.034;7.120;2023-02-12T03:21:01;14.77;;;5.55;;
48014;SDS011;33780;51.034;7.120;2023-02-12T03:23:32;15.73;;;5.18;;
48014;SDS011;33780;51.034;7.120;2023-02-12T03:26:09;15.95;;;5.95;;
48014;SDS011;33780;51.034;7.120;2023-02-12T03:28:39;20.50;;;6.97;;
48014;SDS011;33780;51.034;7.120;2023-02-12T03:34:01;15.30;;;6.68;;
48014;SDS011;33780;51.034;7.120;2023-02-12T03:36:57;19.75;;;7.53;;
48014;SDS011;33780;51.034;7.120;2023-02-12T03:39:28;16.75;;;6.60;;
48014;SDS011;33780;51.034;7.120;2023-02-12T03:42:07;15.67;;;6.37;;
48014;SDS011;33780;51.034;7.120;2023-02-12T03:44:40;18.17;;;6.38;;
48014;SDS011;33780;51.034;7.120;2023-02-12T03:47:20;20.13;;;6.10;;
48014;SDS011;33780;51.034;7.120;2023-02-12T03:49:58;17.60;;;6.05;;
48014;SDS011;33780;51.034;7.120;2023-02-12T03:52:37;17.10;;;6.20;;
48014;SDS011;33780;51.034;7.120;2023-02-12T03:55:02;15.63;;;6.45;;
48014;SDS011;33780;51.034;7.120;2023-02-12T03:57:30;18.30;;;6.22;;
48014;SDS011;33780;51.034;7.120;2023-02-12T04:00:00;14.77;;;5.68;;
48014;SDS011;33780;51.034;7.120;2023-02-12T04:02:28;20.50;;;7.18;;
48014;SDS011;33780;51.034;7.120;2023-02-12T04:04:53;17.80;;;6.95;;
48014;SDS011;33780;51.034;7.120;2023-02-12T04:07:19;21.17;;;7.07;;
48014;SDS011;33780;51.034;7.120;2023-02-12T04:09:44;16.83;;;6.50;;
48014;SDS011;33780;51.034;7.120;2023-02-12T04:12:29;18.33;;;7.38;;
48014;SDS011;33780;51.034;7.120;2023-02-12T04:17:41;17.42;;;6.72;;
48014;SDS011;33780;51.034;7.120;2023-02-12T04:23:10;20.50;;;6.88;;
48014;SDS011;33780;51.034;7.120;2023-02-12T04:25:40;18.52;;;6.50;;
48014;SDS011;33780;51.034;7.120;2023-02-12T04:28:26;21.73;;;7.55;;
48014;SDS011;33780;51.034;7.120;2023-02-12T04:31:02;17.42;;;6.65;;
48014;SDS011;33780;51.034;7.120;2023-02-12T04:33:33;18.15;;;6.50;;
48014;SDS011;33780;51.034;7.120;2023-02-12T04:41:14;20.92;;;6.25;;
48014;SDS011;33780;51.034;7.120;2023-02-12T04:43:39;17.13;;;5.68;;
48014;SDS011;33780;51.034;7.120;2023-02-12T04:46:05;20.98;;;7.03;;
48014;SDS011;33780;51.034;7.120;2023-02-12T04:48:31;19.33;;;7.22;;
48014;SDS011;33780;51.034;7.120;2023-02-12T04:50:58;21.33;;;7.80;;
48014;SDS011;33780;51.034;7.120;2023-02-12T04:53:24;19.13;;;6.80;;
48014;SDS011;33780;51.034;7.120;2023-02-12T04:55:49;20.52;;;6.90;;
48014;SDS011;33780;51.034;7.120;2023-02-12T04:58:15;16.50;;;7.13;;
48014;SDS011;33780;51.034;7.120;2023-02-12T05:00:40;22.00;;;7.55;;
48014;SDS011;33780;51.034;7.120;2023-02-12T05:03:05;21.38;;;7.40;;
48014;SDS011;33780;51.034;7.120;2023-02-12T05:05:31;22.00;;;6.80;;
48014;SDS011;33780;51.034;7.120;2023-02-12T05:07:56;19.92;;;7.43;;
48014;SDS011;33780;51.034;7.120;2023-02-12T05:10:22;20.25;;;7.28;;
48014;SDS011;33780;51.034;7.120;2023-02-12T05:12:47;18.92;;;6.70;;
48014;SDS011;33780;51.034;7.120;2023-02-12T05:15:15;17.00;;;5.95;;
48014;SDS011;33780;51.034;7.120;2023-02-12T05:17:40;15.98;;;7.07;;
48014;SDS011;33780;51.034;7.120;2023-02-12T05:20:06;14.40;;;6.10;;
48014;SDS011;33780;51.034;7.120;2023-02-12T05:22:31;19.08;;;6.80;;
48014;SDS011;33780;51.034;7.120;2023-02-12T05:24:57;19.08;;;6.75;;
48014;SDS011;33780;51.034;7.120;2023-02-12T05:27:22;17.23;;;6.10;;
48014;SDS011;33780;51.034;7.120;2023-02-12T05:29:47;18.83;;;6.90;;
48014;SDS011;33780;51.034;7.120;2023-02-12T05:32:13;18.98;;;7.32;;
48014;SDS011;33780;51.034;7.120;2023-02-12T05:34:38;20.83;;;7.93;;
48014;SDS011;33780;51.034;7.120;2023-02-12T05:37:03;22.67;;;7.63;;
48014;SDS011;33780;51.034;7.120;2023-02-12T05:39:28;22.00;;;7.97;;
48014;SDS011;33780;51.034;7.120;2023-02-12T05:41:54;23.05;;;7.75;;
48014;SDS011;33780;51.034;7.120;2023-02-12T05:44:19;24.73;;;8.40;;
48014;SDS011;33780;51.034;7.120;2023-02-12T05:46:44;22.35;;;8.65;;
48014;SDS011;33780;51.034;7.120;2023-02-12T05:49:10;19.25;;;7.05;;
48014;SDS011;33780;51.034;7.120;2023-02-12T05:51:35;18.80;;;7.68;;
48014;SDS011;33780;51.034;7.120;2023-02-12T05:54:01;19.80;;;8.10;;
48014;SDS011;33780;51.034;7.120;2023-02-12T05:56:36;21.42;;;7.63;;
48014;SDS011;33780;51.034;7.120;2023-02-12T05:59:06;19.75;;;7.88;;
48014;SDS011;33780;51.034;7.120;2023-02-12T06:01:34;19.38;;;7.07;;
48014;SDS011;33780;51.034;7.120;2023-02-12T06:04:03;22.42;;;7.53;;
48014;SDS011;33780;51.034;7.120;2023-02-12T06:06:30;19.10;;;7.35;;
48014;SDS011;33780;51.034;7.120;2023-02-12T06:08:56;22.30;;;8.20;;
48014;SDS011;33780;51.034;7.120;2023-02-12T06:11:22;25.45;;;8.35;;
48014;SDS011;33780;51.034;7.120;2023-02-12T06:13:48;25.20;;;8.90;;
48014;SDS011;33780;51.034;7.120;2023-02-12T06:18:42;23.25;;;7.50;;
48014;SDS011;33780;51.034;7.120;2023-02-12T06:21:07;21.10;;;7.53;;
48014;SDS011;33780;51.034;7.120;2023-02-12T06:23:32;19.23;;;7.85;;
48014;SDS011;33780;51.034;7.120;2023-02-12T06:25:57;19.85;;;7.93;;
48014;SDS011;33780;51.034;7.120;2023-02-12T06:28:23;26.13;;;8.50;;
48014;SDS011;33780;51.034;7.120;2023-02-12T06:30:48;23.13;;;7.45;;
48014;SDS011;33780;51.034;7.120;2023-02-12T06:33:14;20.52;;;7.68;;
48014;SDS011;33780;51.034;7.120;2023-02-12T06:35:39;20.20;;;7.68;;
48014;SDS011;33780;51.034;7.120;2023-02-12T06:38:04;21.77;;;8.18;;
48014;SDS011;33780;51.034;7.120;2023-02-12T06:40:29;22.20;;;7.07;;
48014;SDS011;33780;51.034;7.120;2023-02-12T06:42:55;20.13;;;7.28;;
48014;SDS011;33780;51.034;7.120;2023-02-12T06:45:20;22.17;;;7.80;;
48014;SDS011;33780;51.034;7.120;2023-02-12T06:47:45;21.23;;;7.97;;
48014;SDS011;33780;51.034;7.120;2023-02-12T06:50:11;18.90;;;6.95;;
48014;SDS011;33780;51.034;7.120;2023-02-12T06:52:36;16.95;;;6.93;;
48014;SDS011;33780;51.034;7.120;2023-02-12T06:55:01;17.90;;;7.55;;
48014;SDS011;33780;51.034;7.120;2023-02-12T06:57:27;21.27;;;8.00;;
48014;SDS011;33780;51.034;7.120;2023-02-12T06:59:53;20.92;;;8.07;;
48014;SDS011;33780;51.034;7.120;2023-02-12T07:02:18;24.13;;;7.90;;
48014;SDS011;33780;51.034;7.120;2023-02-12T07:04:44;22.75;;;7.78;;
48014;SDS011;33780;51.034;7.120;2023-02-12T07:07:09;22.33;;;8.45;;
48014;SDS011;33780;51.034;7.120;2023-02-12T07:09:34;21.90;;;7.40;;
48014;SDS011;33780;51.034;7.120;2023-02-12T07:11:59;20.88;;;7.65;;
48014;SDS011;33780;51.034;7.120;2023-02-12T07:14:25;23.60;;;8.00;;
48014;SDS011;33780;51.034;7.120;2023-02-12T07:16:52;27.35;;;8.20;;
48014;SDS011;33780;51.034;7.120;2023-02-12T07:19:18;24.35;;;7.97;;
48014;SDS011;33780;51.034;7.120;2023-02-12T07:21:43;22.52;;;7.63;;
48014;SDS011;33780;51.034;7.120;2023-02-12T07:24:09;26.10;;;8.73;;
48014;SDS011;33780;51.034;7.120;2023-02-12T07:26:38;23.20;;;8.75;;
48014;SDS011;33780;51.034;7.120;2023-02-12T07:29:05;20.77;;;7.57;;
48014;SDS011;33780;51.034;7.120;2023-02-12T07:31:30;18.92;;;7.65;;
48014;SDS011;33780;51.034;7.120;2023-02-12T07:33:56;20.55;;;7.45;;
48014;SDS011;33780;51.034;7.120;2023-02-12T07:36:23;21.73;;;8.05;;
48014;SDS011;33780;51.034;7.120;2023-02-12T07:38:52;27.27;;;8.73;;
48014;SDS011;33780;51.034;7.120;2023-02-12T07:41:22;20.50;;;7.45;;
48014;SDS011;33780;51.034;7.120;2023-02-12T07:43:52;24.77;;;8.50;;
48014;SDS011;33780;51.034;7.120;2023-02-12T07:46:21;19.23;;;7.95;;
48014;SDS011;33780;51.034;7.120;2023-02-12T07:48:50;21.85;;;8.73;;
48014;SDS011;33780;51.034;7.120;2023-02-12T07:51:16;19.10;;;7.70;;
48014;SDS011;33780;51.034;7.120;2023-02-12T07:53:45;23.33;;;7.60;;
48014;SDS011;33780;51.034;7.120;2023-02-12T07:56:12;21.17;;;7.72;;
48014;SDS011;33780;51.034;7.120;2023-02-12T07:58:39;24.63;;;8.38;;
48014;SDS011;33780;51.034;7.120;2023-02-12T08:03:38;20.38;;;7.57;;
48014;SDS011;33780;51.034;7.120;2023-02-12T08:06:23;21.05;;;8.00;;
48014;SDS011;33780;51.034;7.120;2023-02-12T08:08:50;20.38;;;8.35;;
48014;SDS011;33780;51.034;7.120;2023-02-12T08:11:19;24.92;;;8.32;;
48014;SDS011;33780;51.034;7.120;2023-02-12T08:13:45;24.13;;;7.85;;
48014;SDS011;33780;51.034;7.120;2023-02-12T08:16:12;20.73;;;7.75;;
48014;SDS011;33780;51.034;7.120;2023-02-12T08:18:39;21.58;;;8.65;;
48014;SDS011;33780;51.034;7.120;2023-02-12T08:21:09;25.50;;;9.25;;
48014;SDS011;33780;51.034;7.120;2023-02-12T08:23:39;22.05;;;8.25;;
48014;SDS011;33780;51.034;7.120;2023-02-12T08:26:06;23.38;;;9.13;;
48014;SDS011;33780;51.034;7.120;2023-02-12T08:28:33;21.45;;;8.13;;
48014;SDS011;33780;51.034;7.120;2023-02-12T08:31:06;25.70;;;8.15;;
48014;SDS011;33780;51.034;7.120;2023-02-12T08:33:34;23.23;;;7.93;;
48014;SDS011;33780;51.034;7.120;2023-02-12T08:36:03;26.80;;;8.73;;
48014;SDS011;33780;51.034;7.120;2023-02-12T08:38:30;23.85;;;8.65;;
48014;SDS011;33780;51.034;7.120;2023-02-12T08:41:04;26.63;;;8.82;;
48014;SDS011;33780;51.034;7.120;2023-02-12T08:43:31;22.95;;;8.23;;
48014;SDS011;33780;51.034;7.120;2023-02-12T08:46:00;31.63;;;9.63;;
48014;SDS011;33780;51.034;7.120;2023-02-12T08:48:27;27.73;;;10.75;;
48014;SDS011;33780;51.034;7.120;2023-02-12T08:54:22;25.05;;;8.93;;
48014;SDS011;33780;51.034;7.120;2023-02-12T08:56:48;25.17;;;9.18;;
48014;SDS011;33780;51.034;7.120;2023-02-12T09:23:02;28.73;;;9.60;;
48014;SDS011;33780;51.034;7.120;2023-02-12T09:28:50;30.60;;;10.77;;
48014;SDS011;33780;51.034;7.120;2023-02-12T09:31:25;26.20;;;10.18;;
48014;SDS011;33780;51.034;7.120;2023-02-12T09:34:35;24.60;;;9.85;;
48014;SDS011;33780;51.034;7.120;2023-02-12T09:37:03;31.00;;;10.85;;
48014;SDS011;33780;51.034;7.120;2023-02-12T09:39:41;27.85;;;9.68;;
48014;SDS011;33780;51.034;7.120;2023-02-12T09:45:11;27.08;;;10.65;;
48014;SDS011;33780;51.034;7.120;2023-02-12T09:53:11;36.17;;;11.10;;
48014;SDS011;33780;51.034;7.120;2023-02-12T09:55:40;28.23;;;11.07;;
48014;SDS011;33780;51.034;7.120;2023-02-12T09:58:10;27.77;;;10.00;;
48014;SDS011;33780;51.034;7.120;2023-02-12T10:00:42;33.05;;;10.38;;
48014;SDS011;33780;51.034;7.120;2023-02-12T10:03:12;28.50;;;9.50;;
48014;SDS011;33780;51.034;7.120;2023-02-12T10:05:41;22.77;;;9.25;;
48014;SDS011;33780;51.034;7.120;2023-02-12T10:13:36;22.50;;;9.02;;
48014;SDS011;33780;51.034;7.120;2023-02-12T10:24:57;21.60;;;7.97;;
48014;SDS011;33780;51.034;7.120;2023-02-12T10:27:33;22.43;;;7.80;;
48014;SDS011;33780;51.034;7.120;2023-02-12T10:30:03;22.88;;;8.55;;
48014;SDS011;33780;51.034;7.120;2023-02-12T10:32:38;21.67;;;7.57;;
48014;SDS011;33780;51.034;7.120;2023-02-12T10:35:12;20.67;;;8.13;;
48014;SDS011;33780;51.034;7.120;2023-02-12T10:37:41;15.20;;;6.40;;
48014;SDS011;33780;51.034;7.120;2023-02-12T10:40:17;19.92;;;7.05;;
48014;SDS011;33780;51.034;7.120;2023-02-12T10:42:47;19.05;;;7.28;;
48014;SDS011;33780;51.034;7.120;2023-02-12T10:45:36;17.92;;;7.47;;
48014;SDS011;33780;51.034;7.120;2023-02-12T10:50:50;21.13;;;7.13;;
48014;SDS011;33780;51.034;7.120;2023-02-12T10:53:26;20.65;;;7.60;;
48014;SDS011;33780;51.034;7.120;2023-02-12T10:56:08;17.45;;;7.78;;
48014;SDS011;33780;51.034;7.120;2023-02-12T10:58:51;19.17;;;7.13;;
48014;SDS011;33780;51.034;7.120;2023-02-12T11:01:25;14.80;;;6.25;;
48014;SDS011;33780;51.034;7.120;2023-02-12T11:03:53;19.63;;;7.25;;
48014;SDS011;33780;51.034;7.120;2023-02-12T11:06:21;18.40;;;6.05;;
48014;SDS011;33780;51.034;7.120;2023-02-12T11:08:56;16.10;;;6.68;;
48014;SDS011;33780;51.034;7.120;2023-02-12T11:16:30;17.98;;;6.70;;
48014;SDS011;33780;51.034;7.120;2023-02-12T11:19:02;17.70;;;6.50;;
48014;SDS011;33780;51.034;7.120;2023-02-12T11:21:30;16.02;;;6.80;;
48014;SDS011;33780;51.034;7.120;2023-02-12T11:23:56;16.10;;;6.57;;
48014;SDS011;33780;51.034;7.120;2023-02-12T11:26:27;16.52;;;7.07;;
48014;SDS011;33780;51.034;7.120;2023-02-12T11:29:16;16.93;;;5.90;;
48014;SDS011;33780;51.034;7.120;2023-02-12T11:31:44;16.98;;;6.35;;
48014;SDS011;33780;51.034;7.120;2023-02-12T11:34:24;13.15;;;6.03;;
48014;SDS011;33780;51.034;7.120;2023-02-12T11:36:51;16.90;;;6.10;;
48014;SDS011;33780;51.034;7.120;2023-02-12T11:39:19;16.40;;;5.30;;
48014;SDS011;33780;51.034;7.120;2023-02-12T11:44:46;17.55;;;5.90;;
48014;SDS011;33780;51.034;7.120;2023-02-12T11:47:17;16.50;;;5.63;;
48014;SDS011;33780;51.034;7.120;2023-02-12T11:50:00;16.27;;;6.53;;
48014;SDS011;33780;51.034;7.120;2023-02-12T11:52:42;12.93;;;5.72;;
48014;SDS011;33780;51.034;7.120;2023-02-12T11:55:24;16.17;;;6.65;;
48014;SDS011;33780;51.034;7.120;2023-02-12T11:57:52;17.50;;;5.85;;
48014;SDS011;33780;51.034;7.120;2023-02-12T12:00:29;15.20;;;5.60;;
48014;SDS011;33780;51.034;7.120;2023-02-12T12:03:01;14.27;;;5.53;;
48014;SDS011;33780;51.034;7.120;2023-02-12T12:05:35;18.77;;;6.50;;
48014;SDS011;33780;51.034;7.120;2023-02-12T12:08:06;19.58;;;7.47;;
48014;SDS011;33780;51.034;7.120;2023-02-12T12:10:45;15.93;;;6.30;;
48014;SDS011;33780;51.034;7.120;2023-02-12T12:13:15;19.23;;;6.72;;
48014;SDS011;33780;51.034;7.120;2023-02-12T12:15:47;18.90;;;6.50;;
48014;SDS011;33780;51.034;7.120;2023-02-12T12:18:58;18.23;;;6.75;;
48014;SDS011;33780;51.034;7.120;2023-02-12T12:21:53;18.73;;;6.78;;
48014;SDS011;33780;51.034;7.120;2023-02-12T12:24:37;18.70;;;7.30;;
48014;SDS011;33780;51.034;7.120;2023-02-12T12:27:20;15.75;;;6.63;;
48014;SDS011;33780;51.034;7.120;2023-02-12T12:33:14;19.75;;;7.85;;
48014;SDS011;33780;51.034;7.120;2023-02-12T12:38:45;17.30;;;7.05;;
48014;SDS011;33780;51.034;7.120;2023-02-12T12:41:16;21.95;;;8.27;;
48014;SDS011;33780;51.034;7.120;2023-02-12T12:44:15;19.02;;;7.07;;
48014;SDS011;33780;51.034;7.120;2023-02-12T13:03:18;17.60;;;7.38;;
48014;SDS011;33780;51.034;7.120;2023-02-12T13:25:26;20.48;;;6.93;;
48014;SDS011;33780;51.034;7.120;2023-02-12T13:27:59;16.63;;;7.05;;
48014;SDS011;33780;51.034;7.120;2023-02-12T13:30:37;21.25;;;6.93;;
48014;SDS011;33780;51.034;7.120;2023-02-12T13:33:14;15.57;;;6.45;;
48014;SDS011;33780;51.034;7.120;2023-02-12T13:35:45;19.65;;;7.43;;
48014;SDS011;33780;51.034;7.120;2023-02-12T13:38:20;19.45;;;7.55;;
48014;SDS011;33780;51.034;7.120;2023-02-12T13:41:03;20.02;;;7.30;;
48014;SDS011;33780;51.034;7.120;2023-02-12T13:46:23;16.63;;;6.60;;
48014;SDS011;33780;51.034;7.120;2023-02-12T13:51:55;15.23;;;6.20;;
48014;SDS011;33780;51.034;7.120;2023-02-12T13:54:46;18.13;;;7.03;;
48014;SDS011;33780;51.034;7.120;2023-02-12T13:57:33;13.68;;;5.80;;
48014;SDS011;33780;51.034;7.120;2023-02-12T13:59:59;15.80;;;6.20;;
48014;SDS011;33780;51.034;7.120;2023-02-12T14:02:39;15.35;;;6.03;;
48014;SDS011;33780;51.034;7.120;2023-02-12T14:05:20;17.65;;;6.47;;
48014;SDS011;33780;51.034;7.120;2023-02-12T14:07:58;17.25;;;6.28;;
48014;SDS011;33780;51.034;7.120;2023-02-12T14:10:28;15.23;;;6.22;;
48014;SDS011;33780;51.034;7.120;2023-02-12T14:13:10;15.00;;;6.45;;
48014;SDS011;33780;51.034;7.120;2023-02-12T14:15:41;16.17;;;6.88;;
48014;SDS011;33780;51.034;7.120;2023-02-12T14:18:51;15.50;;;6.43;;
48014;SDS011;33780;51.034;7.120;2023-02-12T14:23:46;15.07;;;6.53;;
48014;SDS011;33780;51.034;7.120;2023-02-12T14:26:17;14.05;;;5.15;;
48014;SDS011;33780;51.034;7.120;2023-02-12T14:28:54;12.18;;;5.10;;
48014;SDS011;33780;51.034;7.120;2023-02-12T14:33:52;13.80;;;5.35;;
48014;SDS011;33780;51.034;7.120;2023-02-12T14:36:37;16.08;;;5.80;;
48014;SDS011;33780;51.034;7.120;2023-02-12T14:41:48;12.23;;;5.53;;
48014;SDS011;33780;51.034;7.120;2023-02-12T14:49:50;12.85;;;5.47;;
48014;SDS011;33780;51.034;7.120;2023-02-12T14:52:24;13.52;;;5.32;;
48014;SDS011;33780;51.034;7.120;2023-02-12T14:55:05;11.45;;;4.57;;
48014;SDS011;33780;51.034;7.120;2023-02-12T14:57:43;11.85;;;4.65;;
48014;SDS011;33780;51.034;7.120;2023-02-12T15:00:19;11.43;;;5.20;;
48014;SDS011;33780;51.034;7.120;2023-02-12T15:05:21;12.73;;;4.90;;
48014;SDS011;33780;51.034;7.120;2023-02-12T15:11:33;13.38;;;4.80;;
48014;SDS011;33780;51.034;7.120;2023-02-12T15:13:51;10.68;;;4.43;;
48014;SDS011;33780;51.034;7.120;2023-02-12T15:16:32;11.15;;;4.60;;
48014;SDS011;33780;51.034;7.120;2023-02-12T15:22:16;13.27;;;4.80;;
48014;SDS011;33780;51.034;7.120;2023-02-12T15:24:49;8.75;;;4.07;;
48014;SDS011;33780;51.034;7.120;2023-02-12T15:27:14;13.73;;;4.30;;
48014;SDS011;33780;51.034;7.120;2023-02-12T15:29:46;9.88;;;4.50;;
48014;SDS011;33780;51.034;7.120;2023-02-12T15:32:24;11.38;;;4.70;;
48014;SDS011;33780;51.034;7.120;2023-02-12T15:34:52;9.65;;;4.32;;
48014;SDS011;33780;51.034;7.120;2023-02-12T15:37:22;11.25;;;4.50;;
48014;SDS011;33780;51.034;7.120;2023-02-12T15:39:51;10.52;;;4.65;;
48014;SDS011;33780;51.034;7.120;2023-02-12T15:45:15;8.30;;;3.72;;
48014;SDS011;33780;51.034;7.120;2023-02-12T15:47:54;10.13;;;3.75;;
48014;SDS011;33780;51.034;7.120;2023-02-12T15:50:51;9.70;;;3.70;;
48014;SDS011;33780;51.034;7.120;2023-02-12T15:53:21;7.53;;;3.58;;
48014;SDS011;33780;51.034;7.120;2023-02-12T15:55:57;9.85;;;4.38;;
48014;SDS011;33780;51.034;7.120;2023-02-12T15:58:27;10.07;;;4.32;;
48014;SDS011;33780;51.034;7.120;2023-02-12T16:00:59;8.48;;;3.75;;
48014;SDS011;33780;51.034;7.120;2023-02-12T16:03:28;9.35;;;3.72;;
48014;SDS011;33780;51.034;7.120;2023-02-12T16:06:01;8.70;;;3.92;;
48014;SDS011;33780;51.034;7.120;2023-02-12T16:08:30;9.35;;;3.60;;
48014;SDS011;33780;51.034;7.120;2023-02-12T16:10:58;6.78;;;3.38;;
48014;SDS011;33780;51.034;7.120;2023-02-12T16:13:28;8.10;;;3.78;;
48014;SDS011;33780;51.034;7.120;2023-02-12T16:18:37;8.40;;;3.35;;
48014;SDS011;33780;51.034;7.120;2023-02-12T16:21:25;7.70;;;3.70;;
48014;SDS011;33780;51.034;7.120;2023-02-12T16:23:49;8.57;;;3.10;;
48014;SDS011;33780;51.034;7.120;2023-02-12T16:26:19;6.93;;;3.38;;
48014;SDS011;33780;51.034;7.120;2023-02-12T16:28:48;6.70;;;3.35;;
48014;SDS011;33780;51.034;7.120;2023-02-12T16:31:16;6.97;;;3.38;;
48014;SDS011;33780;51.034;7.120;2023-02-12T16:33:44;10.73;;;3.58;;
48014;SDS011;33780;51.034;7.120;2023-02-12T16:38:50;6.60;;;3.10;;
48014;SDS011;33780;51.034;7.120;2023-02-12T16:43:42;6.50;;;2.80;;
48014;SDS011;33780;51.034;7.120;2023-02-12T16:46:09;8.77;;;2.85;;
48014;SDS011;33780;51.034;7.120;2023-02-12T16:48:37;6.55;;;2.85;;
48014;SDS011;33780;51.034;7.120;2023-02-12T16:51:04;6.70;;;2.83;;
48014;SDS011;33780;51.034;7.120;2023-02-12T16:55:55;9.02;;;2.80;;
48014;SDS011;33780;51.034;7.120;2023-02-12T16:58:21;6.10;;;2.92;;
48014;SDS011;33780;51.034;7.120;2023-02-12T17:00:47;6.97;;;3.17;;
48014;SDS011;33780;51.034;7.120;2023-02-12T17:03:13;6.97;;;2.75;;
48014;SDS011;33780;51.034;7.120;2023-02-12T17:05:40;12.52;;;3.38;;
48014;SDS011;33780;51.034;7.120;2023-02-12T17:08:14;7.30;;;2.90;;
48014;SDS011;33780;51.034;7.120;2023-02-12T17:10:41;5.55;;;2.55;;
48014;SDS011;33780;51.034;7.120;2023-02-12T17:13:08;5.32;;;2.28;;
48014;SDS011;33780;51.034;7.120;2023-02-12T17:15:39;5.82;;;2.75;;
48014;SDS011;33780;51.034;7.120;2023-02-12T17:18:09;5.60;;;2.50;;
48014;SDS011;33780;51.034;7.120;2023-02-12T17:20:38;5.57;;;2.42;;
48014;SDS011;33780;51.034;7.120;2023-02-12T17:23:03;6.05;;;2.55;;
48014;SDS011;33780;51.034;7.120;2023-02-12T17:25:29;4.68;;;2.35;;
48014;SDS011;33780;51.034;7.120;2023-02-12T17:27:55;4.70;;;2.33;;
48014;SDS011;33780;51.034;7.120;2023-02-12T17:30:20;4.57;;;2.10;;
48014;SDS011;33780;51.034;7.120;2023-02-12T17:32:48;4.65;;;2.30;;
48014;SDS011;33780;51.034;7.120;2023-02-12T17:35:13;5.03;;;2.45;;
48014;SDS011;33780;51.034;7.120;2023-02-12T17:37:38;4.85;;;2.10;;
48014;SDS011;33780;51.034;7.120;2023-02-12T17:40:04;4.50;;;2.03;;
48014;SDS011;33780;51.034;7.120;2023-02-12T17:42:30;5.78;;;1.90;;
48014;SDS011;33780;51.034;7.120;2023-02-12T17:44:56;3.30;;;1.52;;
48014;SDS011;33780;51.034;7.120;2023-02-12T17:47:21;4.68;;;1.90;;
48014;SDS011;33780;51.034;7.120;2023-02-12T17:49:47;5.70;;;2.08;;
48014;SDS011;33780;51.034;7.120;2023-02-12T17:52:12;5.75;;;1.67;;
48014;SDS011;33780;51.034;7.120;2023-02-12T17:54:37;3.78;;;1.45;;
48014;SDS011;33780;51.034;7.120;2023-02-12T17:57:03;3.63;;;1.60;;
48014;SDS011;33780;51.034;7.120;2023-02-12T17:59:28;3.30;;;1.50;;